Motte Rimrock Reserve, California Weather observations

Data are for 10 minute period ending at time listed.
 Day   Time   Solar   Ave.   Ave.  Ave.  Vector  Max.   Baro.   Total    
  of    of     Rad.   Air    Rel.  Wind   Wind   Wind  Press.  Precip.   
Year   Day            Temp.  Hum.  Speed  Dir.   Gust                    
2015   (PST)  Kw/m2    F      %     mph   deg.    mph    mb.     in.     
-------------------------------------------------------------------------
  64   20:10   0.00   60.4    16    8.4    37    13.6   954.1    0.00 
  64   20:20   0.00   59.3    17    8.2    23    13.4   954.1    0.00 
  64   20:30   0.00   59.6    16    9.8    25    15.1   954.0    0.00 
  64   20:40   0.00   59.2    17    8.0    36    13.9   954.1    0.00 
  64   20:50   0.00   59.2    16    8.6    42    13.9   954.0    0.00 
  64   21:00   0.00   59.3    16    9.7    41    15.8   954.0    0.00 
  64   21:10   0.00   59.3    16   10.0    35    14.7   954.0    0.00 
  64   21:20   0.00   59.5    16   11.2    33    16.8   954.0    0.00 
  64   21:30   0.00   59.3    16   11.1    40    18.0   954.0    0.00 
  64   21:40   0.00   59.4    16    9.0    36    19.3   954.0    0.00 
  64   21:50   0.00   58.8    17    8.3    41    13.2   954.0    0.00 
  64   22:00   0.00   59.0    16    9.6    35    16.1   954.0    0.00 
  64   22:10   0.00   59.7    15   11.0    33    16.0   953.9    0.00 
  64   22:20   0.00   59.6    15   11.5    31    17.6   953.8    0.00 
  64   22:30   0.00   59.3    15   10.3    26    16.1   953.8    0.00 
  64   22:40   0.00   58.9    16    9.7    21    14.8   953.8    0.00 
  64   22:50   0.00   59.8    15   10.8    29    16.4   953.7    0.00 
  64   23:00   0.00   59.7    15    9.4    29    14.5   953.7    0.00 
  64   23:10   0.00   59.4    15    9.2    31    17.3   953.5    0.00 
  64   23:20   0.00   60.0    15    8.7    25    14.5   953.5    0.00 
  64   23:30   0.00   59.2    16    9.6    20    14.2   953.4    0.00 
  64   23:40   0.00   59.0    16   10.1    21    14.2   953.5    0.00 
  64   23:50   0.00   58.8    16   10.3    23    14.3   953.4    0.00 
  65    0:00   0.00   58.9    16   11.2    22    15.8   953.4    0.00 
  65    0:10   0.00   58.5    16   12.0    19    16.1   953.3    0.00 
  65    0:20   0.00   58.0    16   10.6    11    14.8   953.2    0.00 
  65    0:30   0.00   58.3    16   11.2    18    14.6   953.2    0.00 
  65    0:40   0.00   59.0    16   10.2    27    13.4   953.1    0.00 
  65    0:50   0.00   59.0    16    9.6    30    14.4   953.0    0.00 
  65    1:00   0.00   59.0    16    9.4    36    13.1   953.0    0.00 
  65    1:10   0.00   57.6    17    8.8    18    11.8   953.1    0.00 
  65    1:20   0.00   54.6    20    8.0     8    14.3   953.1    0.00 
  65    1:30   0.00   53.2    20    7.3   344    12.1   953.0    0.00 
  65    1:40   0.00   54.4    18    9.3   323    12.2   952.8    0.00 
  65    1:50   0.00   54.5    17    6.7   322    10.5   952.8    0.00 
  65    2:00   0.00   55.9    16    6.2   330     8.2   952.8    0.00 
  65    2:10   0.00   57.0    14    4.9   347     7.2   952.8    0.00 
  65    2:20   0.00   59.4    13    3.4   335     4.9   952.8    0.00 
  65    2:30   0.00   58.7    13    5.0   338     7.7   952.6    0.00 
  65    2:40   0.00   56.6    14    6.9   321     8.8   952.5    0.00 
  65    2:50   0.00   54.6    16    8.4   320    10.4   952.4    0.00 
  65    3:00   0.00   54.6    16    7.3   317    10.0   952.4    0.00 
  65    3:10   0.00   53.5    17    9.2   309    11.9   952.2    0.00 
  65    3:20   0.00   54.5    16   10.1   305    13.5   952.2    0.00 
  65    3:30   0.00   55.5    16   11.4   306    14.5   952.1    0.00 
  65    3:40   0.00   54.5    17   12.0   309    14.4   952.1    0.00 
  65    3:50   0.00   53.6    18   11.6   313    14.1   952.0    0.00 
  65    4:00   0.00   53.5    18   10.5   323    13.7   952.1    0.00 
  65    4:10   0.00   53.0    19    9.9   328    11.5   952.1    0.00 
  65    4:20   0.00   52.0    20    9.7   324    13.6   952.1    0.00 
  65    4:30   0.00   52.5    19   10.7   326    15.1   952.1    0.00 
  65    4:40   0.00   52.5    19   11.7   322    14.5   952.0    0.00 
  65    4:50   0.00   52.9    18   11.5   330    12.9   952.2    0.00 
  65    5:00   0.00   53.0    18    8.8   334    11.8   952.2    0.00 
  65    5:10   0.00   53.4    18    7.0   335    10.2   952.3    0.00 
  65    5:20   0.00   52.8    18    9.4   314    10.9   952.4    0.00 
  65    5:30   0.00   53.6    17    9.1   310    10.4   952.5    0.00 
  65    5:40   0.00   53.2    17   11.1   313    13.3   952.5    0.00 
  65    5:50   0.00   53.0    18    9.4   318    12.9   952.5    0.00 
  65    6:00   0.00   52.5    19    9.2   318    11.3   952.5    0.00 
  65    6:10   0.00   50.3    22   10.0   322    12.6   952.5    0.00 
  65    6:20   0.00   49.3    24    9.9   319    12.1   952.4    0.00 
  65    6:30   0.01   50.0    24   10.8   324    12.4   952.4    0.00 
  65    6:40   0.04   51.2    23   12.1   331    14.4   952.4    0.00 
  65    6:50   0.07   53.0    21   11.8   338    16.1   952.5    0.00 
  65    7:00   0.11   54.6    19    9.0   348    11.8   952.7    0.00 
  65    7:10   0.14   56.9    17    8.1   347    10.7   952.8    0.00 
  65    7:20   0.18   56.9    17    7.9   358    10.7   952.9    0.00 
  65    7:30   0.22   59.8    14    7.8     8    10.0   953.0    0.00 
  65    7:40   0.26   61.0    13    8.6     9    12.7   953.1    0.00 
  65    7:50   0.29   59.9    16   10.0   350    13.7   953.3    0.00 
  65    8:00   0.33   58.9    18   10.2   332    12.9   953.4    0.00 
  65    8:10   0.37   59.1    19    9.3   329    11.9   953.6    0.00 
  65    8:20   0.40   60.8    18    9.0   335    11.4   953.7    0.00 
  65    8:30   0.44   62.0    16   10.2   334    13.4   953.7    0.00 
  65    8:40   0.47   63.0    16    9.6   328    11.8   953.8    0.00 
  65    8:50   0.51   64.3    14    8.7   344    12.7   953.9    0.00 
  65    9:00   0.54   65.5    14   10.3   350    14.9   953.9    0.00 
  65    9:10   0.57   66.0    14    9.2     2    16.2   953.8    0.00 
  65    9:20   0.60   66.8    14    8.1    17    12.3   953.9    0.00 
  65    9:30   0.63   67.6    14    7.9    16    14.6   953.9    0.00 
  65    9:40   0.66   68.1    13   11.7    44    18.8   953.8    0.00 
  65    9:50   0.68   68.8    14   10.6    43    17.3   953.7    0.00 
  65   10:00   0.71   69.6    13   10.3    41    16.1   953.6    0.00 
  65   10:10   0.73   69.5    13   10.9    54    15.2   953.6    0.00 
  65   10:20   0.75   69.7    13   11.0    54    18.3   953.6    0.00 
  65   10:30   0.77   70.5    12    7.9    53    12.8   953.6    0.00 
  65   10:40   0.79   70.7    12    6.5    21    11.3   953.4    0.00 
  65   10:50   0.80   70.1    12    5.9   338    11.0   953.3    0.00 
  65   11:00   0.82   70.5    12    5.4     6     8.6   953.2    0.00 
  65   11:10   0.83   71.2    12    6.9   343    14.5   953.0    0.00 
  65   11:20   0.84   70.8    12    7.3     0    13.4   952.9    0.00 
  65   11:30   0.85   71.6    12    5.6   356    12.3   952.8    0.00 
  65   11:40   0.86   71.6    12    9.3   319    15.7   952.6    0.00 
  65   11:50   0.86   71.6    11    6.0   338    11.2   952.4    0.00 
  65   12:00   0.86   72.1    11    6.7   358    10.9   952.2    0.00 
  65   12:10   0.86   72.8    11    5.4    25    10.3   952.1    0.00 
  65   12:20   0.86   72.6    11    5.6   344     9.9   951.9    0.00 
  65   12:30   0.86   73.2    11    4.8     2     9.1   951.7    0.00 
  65   12:40   0.85   73.8    11    6.2    31    10.7   951.6    0.00 
  65   12:50   0.85   74.2    12    3.7     2     7.4   951.3    0.00 
  65   13:00   0.83   74.0    11    8.6   315    14.6   951.0    0.00 
  65   13:10   0.82   74.6    11    7.7     7    12.0   950.9    0.00 
  65   13:20   0.81   74.4    11    8.4   335    15.6   950.6    0.00 
  65   13:30   0.79   74.7    11    9.7   350    15.5   950.4    0.00 
  65   13:40   0.78   75.0    11    6.4   349    11.3   950.3    0.00 
  65   13:50   0.76   75.2    11    8.1   347    13.5   950.1    0.00 
  65   14:00   0.71   75.1    11    6.3   334    12.3   950.0    0.00 
  65   14:10   0.72   76.1    10    5.8    32     9.9   949.8    0.00 
  65   14:20   0.69   76.5    10    5.9    14    10.2   949.7    0.00 
  65   14:30   0.67   76.9    10    6.1    29    12.0   949.6    0.00 
  65   14:40   0.65   76.0     9    8.9    31    15.1   949.5    0.00 
  65   14:50   0.62   75.6     8    9.2    47    14.3   949.4    0.00 
  65   15:00   0.59   75.7     8    9.5    39    16.7   949.4    0.00 
  65   15:10   0.56   75.8     8    9.3    30    15.3   949.3    0.00 
  65   15:20   0.53   75.8     8   12.0    36    18.2   949.2    0.00 
  65   15:30   0.49   75.4     8   11.0    39    15.8   949.1    0.00 
  65   15:40   0.46   75.3     8   10.6    48    17.6   949.0    0.00 
  65   15:50   0.43   75.3     8    9.5    37    14.3   949.0    0.00 
  65   16:00   0.39   75.1     8    9.3    42    15.7   948.9    0.00 
  65   16:10   0.35   74.6     8   11.7    41    19.0   948.9    0.00 
  65   16:20   0.31   74.2     8   10.9    43    18.0   948.9    0.00 
  65   16:30   0.27   73.7     9   10.6    43    15.3   948.9    0.00 
  65   16:40   0.24   73.6     9    8.6    41    14.0   948.9    0.00 
  65   16:50   0.20   73.3     9    9.0    42    13.3   949.0    0.00 
  65   17:00   0.16   72.9     8    8.4    38    13.9   949.0    0.00 
  65   17:10   0.12   72.5     9    8.6    30    12.3   949.0    0.00 
  65   17:20   0.08   71.8     9    8.1    29    13.5   949.0    0.00 
  65   17:30   0.06   71.2     9    9.1    26    14.2   948.9    0.00 
  65   17:40   0.03   70.5     9    7.5    27    12.0   948.9    0.00 
  65   17:50   0.01   69.5    10    8.3    18    12.6   949.0    0.00 
  65   18:00   0.00   68.7    10    7.9    34    12.5   949.0    0.00 
  65   18:10   0.00   68.6     9   10.1    31    17.0   948.9    0.00 
  65   18:20   0.00   68.3     9   10.0    39    16.0   948.9    0.00 
  65   18:30   0.00   68.1    10   10.5    44    17.5   948.9    0.00 
  65   18:40   0.00   67.4    11    9.7    45    16.1   949.0    0.00 
  65   18:50   0.00   66.8    11    7.9    41    14.0   949.2    0.00 
  65   19:00   0.00   65.6    12    6.0    57    10.4   949.4    0.00 
  65   19:10   0.00   64.8    13    4.0    73     7.7   949.5    0.00 
  65   19:20   0.00   64.8    13    4.2    71     7.0   949.5    0.00 
  65   19:30   0.00   65.1    12    6.6    80     9.6   949.6    0.00 
  65   19:40   0.00   65.3    12    5.7    58     9.7   949.6    0.00 
  65   19:50   0.00   64.7    12    5.3    58     8.3   949.6    0.00 
  65   20:00   0.00   64.8    12    5.8    30     8.7   949.7    0.00 

Return to Motte Rimrock Reserve graphs page.


Western Regional Climate Center,wrcc@dri.edu